Time;durP1;ratioP1;P1;durP2;ratioP2;P2;SDS_P1;SDS_P2;PMS_P1;PMS_P2;Temp;Humidity;BMP_temperature;BMP_pressure;BME280_temperature;BME280_humidity;BME280_pressure;Samples;Min_cycle;Max_cycle;Signal;HPM_P1;HPM_P2
2023/03/18 00:02:20;;;;;;;154.75;73.03;;;102.50;2227.20;;;;;;4991501;28;20031;-66
2023/03/18 00:04:46;;;;;;;54.53;29.05;;;102.60;2227.20;;;;;;4991346;28;20033;-67
2023/03/18 00:07:12;;;;;;;198.48;95.65;;;102.80;2227.20;;;;;;4991661;28;20117;-67
2023/03/18 00:09:37;;;;;;;44.92;24.63;;;102.80;2227.20;;;;;;4990904;28;20065;-67
2023/03/18 00:12:05;;;;;;;49.75;25.13;;;102.80;2227.20;;;;;;4991204;28;20038;-69
2023/03/18 00:14:31;;;;;;;141.73;62.28;;;102.90;2227.20;;;;;;4977994;28;20130;-72
2023/03/18 00:16:57;;;;;;;82.00;42.88;;;103.00;2227.20;;;;;;4991084;28;20038;-71
2023/03/18 00:19:26;;;;;;;52.08;28.52;;;102.80;2227.20;;;;;;4991112;28;20381;-66
2023/03/18 00:21:51;;;;;;;91.88;48.97;;;102.80;2227.20;;;;;;4991221;28;20031;-70
2023/03/18 00:24:17;;;;;;;100.53;53.47;;;102.80;2227.20;;;;;;4990380;28;20385;-66
2023/03/18 00:26:43;;;;;;;70.13;39.22;;;102.90;2227.20;;;;;;4991281;28;20037;-65
2023/03/18 00:29:09;;;;;;;50.70;30.30;;;102.80;2227.20;;;;;;4990791;28;20664;-68
2023/03/18 00:31:37;;;;;;;74.05;43.55;;;102.80;2227.20;;;;;;4991156;28;20030;-66
2023/03/18 00:34:03;;;;;;;78.28;41.33;;;102.80;2227.20;;;;;;4977907;28;20057;-65
2023/03/18 00:36:29;;;;;;;48.03;25.33;;;102.80;2227.20;;;;;;4990748;28;20023;-63
2023/03/18 00:38:56;;;;;;;42.33;21.77;;;102.80;2227.20;;;;;;4991060;28;20045;-68
2023/03/18 00:41:31;;;;;;;83.88;41.88;;;102.80;2227.20;;;;;;4990933;28;20420;-65
2023/03/18 00:43:57;;;;;;;66.80;36.72;;;102.90;2227.20;;;;;;4989958;28;20022;-69
2023/03/18 00:46:26;;;;;;;182.57;93.00;;;102.80;2227.20;;;;;;4990501;28;20069;-67
2023/03/18 00:48:55;;;;;;;108.38;55.25;;;102.60;2227.20;;;;;;4990507;28;20117;-64
2023/03/18 00:51:23;;;;;;;74.60;40.60;;;102.50;2227.20;;;;;;4990409;28;20030;-69
2023/03/18 00:53:52;;;;;;;26.92;13.77;;;102.50;2227.20;;;;;;4989814;28;20027;-64
2023/03/18 00:56:20;;;;;;;26.08;16.20;;;77.70;2227.20;;;;;;4990301;28;20031;-64
2023/03/18 00:58:47;;;;;;;39.50;20.25;;;77.40;2227.20;;;;;;4990281;28;20081;-65
2023/03/18 01:01:14;;;;;;;46.55;20.80;;;77.30;2227.20;;;;;;4972806;28;20026;-63
2023/03/18 01:03:43;;;;;;;33.08;18.63;;;77.20;2227.20;;;;;;4990412;28;20068;-67
2023/03/18 01:06:12;;;;;;;170.93;83.38;;;77.50;2227.20;;;;;;4990319;28;20110;-64
2023/03/18 01:08:38;;;;;;;45.63;24.70;;;77.40;2227.20;;;;;;4990270;28;20125;-63
2023/03/18 01:11:05;;;;;;;167.63;74.03;;;77.40;2227.20;;;;;;4990096;28;20022;-66
2023/03/18 01:13:31;;;;;;;156.40;71.75;;;77.40;2227.20;;;;;;4989695;28;20050;-69
2023/03/18 01:15:57;;;;;;;185.25;86.25;;;77.40;2227.20;;;;;;4989892;28;20048;-67
2023/03/18 01:18:23;;;;;;;48.88;25.92;;;77.60;2227.20;;;;;;4989803;28;20077;-63
2023/03/18 01:20:50;;;;;;;79.60;38.85;;;77.60;2227.20;;;;;;4989864;28;20022;-63
2023/03/18 01:23:16;;;;;;;88.05;46.85;;;77.60;2227.20;;;;;;4990284;28;20492;-64
2023/03/18 01:25:43;;;;;;;118.78;55.08;;;77.50;2227.20;;;;;;4989569;28;20018;-64
2023/03/18 01:28:10;;;;;;;185.60;82.40;;;77.50;2227.20;;;;;;4971352;28;20045;-66
2023/03/18 01:30:37;;;;;;;141.02;65.00;;;77.60;2227.20;;;;;;4989667;28;20544;-65
2023/03/18 01:33:06;;;;;;;47.05;24.63;;;77.60;2227.20;;;;;;4990051;28;20026;-65
2023/03/18 01:35:34;;;;;;;32.13;16.80;;;77.60;2227.20;;;;;;4989591;28;20473;-66
2023/03/18 01:38:01;;;;;;;43.38;26.65;;;77.40;2227.20;;;;;;4989641;28;20044;-70
2023/03/18 01:40:27;;;;;;;33.92;19.70;;;77.50;2227.20;;;;;;4989540;28;20058;-66
2023/03/18 01:43:04;;;;;;;35.55;23.00;;;77.40;2227.20;;;;;;4989699;28;20148;-68
2023/03/18 01:45:30;;;;;;;17.80;12.55;;;77.60;2227.20;;;;;;4989712;28;20481;-70
2023/03/18 01:47:57;;;;;;;23.50;12.73;;;77.40;2227.20;;;;;;4989407;28;20030;-64
2023/03/18 01:50:31;;;;;;;27.63;16.95;;;77.50;2227.20;;;;;;4989629;28;20034;-68
2023/03/18 01:53:12;;;;;;;27.95;16.75;;;77.50;2227.20;;;;;;4989711;28;20036;-66
2023/03/18 01:55:39;;;;;;;47.25;29.13;;;77.40;2227.20;;;;;;4989811;28;20030;-64
2023/03/18 01:58:33;;;;;;;12.48;10.02;;;77.30;2227.20;;;;;;4989789;28;20026;-67
2023/03/18 02:01:12;;;;;;;17.08;10.45;;;77.40;2227.20;;;;;;4986663;28;20038;-68
2023/03/18 02:03:41;;;;;;;11.27;8.43;;;77.40;2227.20;;;;;;4989192;28;20073;-72
2023/03/18 02:06:07;;;;;;;48.30;28.40;;;77.40;2227.20;;;;;;4978505;28;20038;-65
2023/03/18 02:08:32;;;;;;;23.80;16.08;;;77.30;2227.20;;;;;;4993466;28;20030;-64
2023/03/18 02:10:59;;;;;;;35.45;20.60;;;77.40;2227.20;;;;;;4989497;28;20084;-69
2023/03/18 02:13:26;;;;;;;19.67;11.70;;;77.40;2227.20;;;;;;4984355;28;20078;-67
2023/03/18 02:16:00;;;;;;;38.55;20.25;;;77.50;2227.20;;;;;;4993651;28;20093;-65
2023/03/18 02:18:44;;;;;;;30.38;17.45;;;77.40;2227.20;;;;;;4992757;28;20106;-64
2023/03/18 02:21:16;;;;;;;23.13;12.63;;;77.40;2227.20;;;;;;4981868;28;20113;-62
2023/03/18 02:24:00;;;;;;;19.35;11.48;;;77.20;2227.20;;;;;;4992916;28;20022;-63
2023/03/18 02:26:33;;;;;;;16.70;10.32;;;76.80;2227.20;;;;;;4993394;28;20477;-64
2023/03/18 02:29:02;;;;;;;14.73;9.25;;;51.90;2227.20;;;;;;4992481;28;20037;-67
2023/03/18 02:31:29;;;;;;;13.13;8.68;;;51.80;2227.20;;;;;;4992986;28;20062;-68
2023/03/18 02:33:57;;;;;;;71.15;32.28;;;51.80;2227.20;;;;;;4993022;28;20026;-66
2023/03/18 02:36:28;;;;;;;36.53;18.98;;;52.10;2227.20;;;;;;4993158;28;20026;-69
2023/03/18 02:38:59;;;;;;;18.90;12.23;;;52.00;2227.20;;;;;;4993770;28;20023;-69
2023/03/18 02:41:28;;;;;;;258.80;108.40;;;76.90;2227.20;;;;;;4993711;28;20031;-73
2023/03/18 02:43:54;;;;;;;470.33;219.18;;;76.90;2227.20;;;;;;4993954;28;20113;-68
2023/03/18 02:46:39;;;;;;;80.55;34.85;;;77.00;2227.20;;;;;;4995425;28;20022;-72
2023/03/18 02:49:06;;;;;;;112.85;53.58;;;77.00;2227.20;;;;;;4996262;28;20366;-70
2023/03/18 02:51:34;;;;;;;77.88;32.70;;;77.00;2227.20;;;;;;4996396;28;20110;-70
2023/03/18 02:54:06;;;;;;;326.85;131.90;;;77.10;2227.20;;;;;;4983011;28;20508;-70
2023/03/18 02:56:33;;;;;;;198.02;82.63;;;77.10;2227.20;;;;;;4991459;28;20105;-70
2023/03/18 02:58:58;;;;;;;373.13;171.43;;;77.10;2227.20;;;;;;4992911;28;20030;-64
2023/03/18 03:01:24;;;;;;;90.53;46.40;;;77.00;2227.20;;;;;;4992397;28;20027;-66
2023/03/18 03:03:50;;;;;;;44.28;20.95;;;76.90;2227.20;;;;;;4974395;28;20038;-70
2023/03/18 03:06:16;;;;;;;27.45;16.95;;;77.00;2227.20;;;;;;4992574;28;20556;-67
2023/03/18 03:08:43;;;;;;;111.75;53.88;;;77.00;2227.20;;;;;;4992548;28;20085;-67
2023/03/18 03:11:10;;;;;;;56.45;27.13;;;77.00;2227.20;;;;;;4992399;28;20089;-67
2023/03/18 03:13:38;;;;;;;53.92;28.35;;;76.90;2227.20;;;;;;4991987;28;20058;-71
2023/03/18 03:16:04;;;;;;;542.92;241.68;;;77.10;2227.20;;;;;;4992333;28;20034;-70
2023/03/18 03:18:30;;;;;;;492.92;213.55;;;77.10;2227.20;;;;;;4990990;28;20034;-66
2023/03/18 03:20:55;;;;;;;510.50;224.75;;;77.00;2227.20;;;;;;4992177;28;20022;-65
2023/03/18 03:23:22;;;;;;;346.90;148.05;;;76.90;2227.20;;;;;;4992106;28;20097;-64
2023/03/18 03:25:48;;;;;;;397.92;166.80;;;76.90;2227.20;;;;;;4991736;28;20026;-68
2023/03/18 03:28:15;;;;;;;366.27;150.10;;;76.90;2227.20;;;;;;4992124;28;20026;-67
2023/03/18 03:30:42;;;;;;;373.58;158.55;;;76.90;2227.20;;;;;;4991746;28;20077;-67
2023/03/18 03:33:08;;;;;;;291.38;111.43;;;76.90;2227.20;;;;;;4991736;28;20049;-67
2023/03/18 03:35:35;;;;;;;458.40;186.63;;;76.90;2227.20;;;;;;4991813;28;20369;-64
2023/03/18 03:38:01;;;;;;;253.00;94.75;;;76.90;2227.20;;;;;;4991889;28;20022;-70
2023/03/18 03:40:27;;;;;;;78.15;35.33;;;77.00;2227.20;;;;;;4991557;28;20057;-63
2023/03/18 03:42:53;;;;;;;96.90;44.95;;;77.00;2227.20;;;;;;4991643;28;20053;-68
2023/03/18 03:45:19;;;;;;;142.20;62.15;;;77.00;2227.20;;;;;;4991652;28;20034;-67
2023/03/18 03:47:45;;;;;;;206.65;94.45;;;77.10;2227.20;;;;;;4992239;28;20034;-66
2023/03/18 03:50:12;;;;;;;146.45;71.40;;;77.00;2227.20;;;;;;4991353;28;20049;-69
2023/03/18 03:52:38;;;;;;;128.32;65.10;;;77.00;2227.20;;;;;;4991659;28;20081;-66
2023/03/18 03:55:11;;;;;;;118.70;52.08;;;77.00;2227.20;;;;;;4967909;28;20089;-64
2023/03/18 03:57:37;;;;;;;47.67;27.08;;;77.00;2227.20;;;;;;4984948;28;20511;-64
2023/03/18 04:00:12;;;;;;;23.92;12.70;;;77.10;2227.20;;;;;;4991702;28;20019;-64
2023/03/18 04:02:44;;;;;;;418.35;160.73;;;77.00;2227.20;;;;;;4991060;28;20528;-70
2023/03/18 04:05:12;;;;;;;29.73;18.35;;;76.90;2227.20;;;;;;4991324;28;20034;-67
2023/03/18 04:07:38;;;;;;;13.68;7.90;;;77.00;2227.20;;;;;;4990969;28;20533;-67
2023/03/18 04:10:05;;;;;;;9.93;6.55;;;76.80;2227.20;;;;;;4991736;28;20084;-72
2023/03/18 04:12:31;;;;;;;15.25;9.20;;;52.10;2227.20;;;;;;4990904;28;20444;-66
2023/03/18 04:14:57;;;;;;;11.93;8.20;;;51.80;2227.20;;;;;;4990946;28;20054;-69
2023/03/18 04:17:23;;;;;;;21.27;9.55;;;51.60;2227.20;;;;;;4991241;28;20135;-66
2023/03/18 04:19:49;;;;;;;15.45;8.88;;;51.50;2227.20;;;;;;4992363;28;20465;-66
2023/03/18 04:22:15;;;;;;;12.70;8.52;;;51.40;2227.20;;;;;;4991659;28;20022;-71
2023/03/18 04:24:41;;;;;;;14.70;7.55;;;51.60;2227.20;;;;;;4990825;28;20559;-65
2023/03/18 04:27:07;;;;;;;15.30;8.82;;;51.60;2227.20;;;;;;4991405;28;20528;-65
2023/03/18 04:29:33;;;;;;;15.15;9.45;;;51.50;2227.20;;;;;;4991097;28;20046;-65
2023/03/18 04:31:58;;;;;;;27.40;13.73;;;51.30;2227.20;;;;;;4990352;28;20038;-63
2023/03/18 04:34:24;;;;;;;11.55;8.00;;;51.60;2227.20;;;;;;4990872;28;20060;-70
2023/03/18 04:36:50;;;;;;;18.30;11.90;;;51.50;2227.20;;;;;;4990644;28;20105;-67
2023/03/18 04:39:16;;;;;;;14.02;8.68;;;51.60;2227.20;;;;;;4990912;28;20034;-66
2023/03/18 04:41:41;;;;;;;12.25;7.20;;;51.60;2227.20;;;;;;4990871;28;20046;-64
2023/03/18 04:44:07;;;;;;;17.00;9.57;;;51.70;2227.20;;;;;;4990496;28;20038;-67
2023/03/18 04:46:33;;;;;;;17.08;8.75;;;51.80;2227.20;;;;;;4990721;28;20080;-66
2023/03/18 04:48:58;;;;;;;12.32;7.53;;;51.90;2227.20;;;;;;4990330;28;20057;-64
2023/03/18 04:51:25;;;;;;;13.90;8.90;;;51.90;2227.20;;;;;;4990583;28;20025;-67
2023/03/18 04:53:51;;;;;;;20.95;13.25;;;51.90;2227.20;;;;;;4990307;28;20436;-70
2023/03/18 04:56:18;;;;;;;29.42;14.75;;;52.00;2227.20;;;;;;4989584;28;20113;-64
2023/03/18 04:58:44;;;;;;;12.75;8.75;;;52.10;2227.20;;;;;;4990683;28;20034;-65
2023/03/18 05:01:11;;;;;;;13.00;8.60;;;52.10;2227.20;;;;;;4990192;28;20022;-63
2023/03/18 05:03:38;;;;;;;19.02;9.32;;;76.80;2227.20;;;;;;4989877;28;20058;-65
2023/03/18 05:06:04;;;;;;;18.80;11.57;;;76.80;2227.20;;;;;;4990236;28;20030;-63
2023/03/18 05:08:29;;;;;;;15.73;11.23;;;76.90;2227.20;;;;;;4989856;28;20432;-69
2023/03/18 05:10:55;;;;;;;13.32;8.43;;;76.80;2227.20;;;;;;4990218;28;20022;-66
2023/03/18 05:13:21;;;;;;;17.15;11.55;;;77.00;2227.20;;;;;;4989764;28;20125;-67
2023/03/18 05:15:47;;;;;;;35.42;22.10;;;77.00;2227.20;;;;;;4989899;28;20054;-65
2023/03/18 05:18:13;;;;;;;52.80;30.00;;;77.20;2227.20;;;;;;4989564;28;20112;-70
2023/03/18 05:20:38;;;;;;;24.55;15.63;;;77.30;2227.20;;;;;;4989434;28;20029;-64
2023/03/18 05:23:04;;;;;;;24.23;14.38;;;77.40;2227.20;;;;;;4989903;28;20022;-69
2023/03/18 05:25:30;;;;;;;47.92;25.00;;;77.30;2227.20;;;;;;4989832;28;20516;-66
2023/03/18 05:27:56;;;;;;;53.92;28.73;;;77.40;2227.20;;;;;;4990205;28;20030;-64
2023/03/18 05:30:22;;;;;;;42.45;20.75;;;77.40;2227.20;;;;;;4989553;28;20035;-68
2023/03/18 05:32:48;;;;;;;18.35;11.43;;;77.40;2227.20;;;;;;4989915;28;20050;-65
2023/03/18 05:35:14;;;;;;;16.52;12.43;;;77.30;2227.20;;;;;;4989820;28;20058;-65
2023/03/18 05:37:42;;;;;;;28.48;19.35;;;77.40;2227.20;;;;;;4989929;28;20388;-66
2023/03/18 05:40:10;;;;;;;17.33;10.88;;;77.40;2227.20;;;;;;4988948;28;20073;-68
2023/03/18 05:42:39;;;;;;;17.45;9.85;;;77.20;2227.20;;;;;;4990088;28;20469;-69
2023/03/18 05:45:06;;;;;;;16.80;8.80;;;77.10;2227.20;;;;;;4989898;28;20032;-69
2023/03/18 05:47:32;;;;;;;17.95;11.50;;;77.00;2227.20;;;;;;4989809;28;20046;-69
2023/03/18 05:49:58;;;;;;;32.83;20.23;;;77.00;2227.20;;;;;;4989262;28;20066;-67
2023/03/18 05:52:24;;;;;;;22.73;13.48;;;77.20;2227.20;;;;;;4989703;28;20019;-71
2023/03/18 05:54:50;;;;;;;26.98;17.38;;;77.30;2227.20;;;;;;4989380;28;20057;-64
2023/03/18 05:57:16;;;;;;;15.75;9.93;;;77.30;2227.20;;;;;;4971936;28;20125;-63
2023/03/18 05:59:42;;;;;;;12.35;7.35;;;77.10;2227.20;;;;;;4989748;28;20105;-69
2023/03/18 06:02:09;;;;;;;17.90;12.60;;;77.20;2227.20;;;;;;4989594;28;20073;-70
2023/03/18 06:04:34;;;;;;;13.45;11.57;;;77.30;2227.20;;;;;;4989723;28;20081;-65
2023/03/18 06:07:02;;;;;;;15.32;10.63;;;77.30;2227.20;;;;;;4989398;28;20429;-69
2023/03/18 06:09:28;;;;;;;16.58;9.95;;;77.50;2227.20;;;;;;4971121;28;20042;-65
2023/03/18 06:11:53;;;;;;;13.80;8.45;;;77.50;2227.20;;;;;;4989828;28;20077;-63
2023/03/18 06:14:19;;;;;;;11.93;9.13;;;103.20;2227.20;;;;;;4988791;28;20050;-69
2023/03/18 06:16:45;;;;;;;13.60;9.05;;;179.20;2252.80;;;;;;4989353;28;20585;-68
2023/03/18 06:19:12;;;;;;;19.13;9.88;;;205.40;2252.80;;;;;;4989363;28;20026;-67
2023/03/18 06:21:38;;;;;;;13.73;9.63;;;230.90;2201.60;;;;;;4989323;28;20026;-68
2023/03/18 06:24:05;;;;;;;12.48;9.98;;;256.50;2073.60;;;;;;4989127;28;20469;-72
2023/03/18 06:26:30;;;;;;;15.85;10.43;;;282.30;2022.40;;;;;;4989352;28;20137;-73
2023/03/18 06:28:57;;;;;;;11.32;9.38;;;307.70;1945.60;;;;;;4989181;28;20158;-64
2023/03/18 06:31:23;;;;;;;18.15;15.93;;;358.50;1868.80;;;;;;4989333;28;20469;-68
2023/03/18 06:33:49;;;;;;;32.05;21.88;;;358.90;1792.00;;;;;;4989030;28;20029;-68
2023/03/18 06:36:15;;;;;;;40.65;35.70;;;358.80;1817.60;;;;;;4988872;28;20030;-70
2023/03/18 06:38:41;;;;;;;28.67;25.33;;;384.00;1740.80;;;;;;4987909;28;20022;-72
2023/03/18 06:41:07;;;;;;;34.53;27.02;;;384.70;1689.60;;;;;;4968775;28;20070;-67
2023/03/18 06:43:34;;;;;;;29.38;25.35;;;384.90;1638.40;;;;;;4976476;28;20018;-68
2023/03/18 06:45:59;;;;;;;29.77;25.35;;;384.60;1638.40;;;;;;4988560;28;20032;-67
2023/03/18 06:48:25;;;;;;;36.47;26.90;;;384.50;1638.40;;;;;;4988358;28;20014;-68
2023/03/18 06:50:51;;;;;;;58.03;39.75;;;384.90;1612.80;;;;;;4988584;28;20038;-70
2023/03/18 06:53:16;;;;;;;54.63;42.58;;;410.00;1612.80;;;;;;4991835;28;20077;-65
2023/03/18 06:55:42;;;;;;;71.18;56.63;;;410.00;1612.80;;;;;;4991584;28;20778;-66
2023/03/18 06:58:09;;;;;;;60.72;51.13;;;435.60;1536.00;;;;;;4988193;28;20037;-67
2023/03/18 07:00:35;;;;;;;50.20;41.92;;;435.60;1536.00;;;;;;4991636;28;20097;-64
2023/03/18 07:03:00;;;;;;;30.65;24.48;;;460.80;1510.40;;;;;;4991092;28;20634;-65
2023/03/18 07:05:27;;;;;;;24.70;22.15;;;436.00;1484.80;;;;;;4990594;28;20029;-64
2023/03/18 07:07:53;;;;;;;37.58;29.48;;;486.50;1433.60;;;;;;4991237;28;20022;-68
2023/03/18 07:10:26;;;;;;;37.58;29.73;;;486.80;1408.00;;;;;;4991054;28;20137;-64
2023/03/18 07:12:52;;;;;;;44.03;36.55;;;512.10;1382.40;;;;;;4979905;28;20478;-66
2023/03/18 07:15:22;;;;;;;33.05;27.58;;;512.90;1356.80;;;;;;4972582;28;20504;-66
2023/03/18 07:17:49;;;;;;;39.40;32.50;;;538.00;1331.20;;;;;;4979551;28;20033;-65
2023/03/18 07:20:16;;;;;;;71.47;55.65;;;538.40;1280.00;;;;;;4973660;28;20030;-65
2023/03/18 07:22:45;;;;;;;51.28;45.63;;;563.70;1280.00;;;;;;4991699;28;20030;-68
2023/03/18 07:25:12;;;;;;;62.83;53.35;;;563.50;1280.00;;;;;;4985318;28;20120;-66
2023/03/18 07:27:38;;;;;;;86.85;67.95;;;563.90;1280.00;;;;;;4978763;28;20026;-69
2023/03/18 07:30:05;;;;;;;73.38;59.63;;;537.90;1331.20;;;;;;4992325;28;20042;-64
2023/03/18 07:32:31;;;;;;;81.68;62.83;;;538.50;1305.60;;;;;;4991680;28;20112;-69
2023/03/18 07:34:57;;;;;;;82.13;69.57;;;538.50;1280.00;;;;;;4991309;28;20046;-65
2023/03/18 07:37:24;;;;;;;73.88;62.05;;;538.40;1305.60;;;;;;4992124;28;20026;-71
2023/03/18 07:39:51;;;;;;;89.65;74.75;;;537.70;1331.20;;;;;;4991418;28;20416;-65
2023/03/18 07:42:17;;;;;;;77.38;64.82;;;588.80;1280.00;;;;;;4991693;28;20026;-64
2023/03/18 07:44:43;;;;;;;75.65;59.92;;;614.50;1203.20;;;;;;4991686;28;20038;-71
2023/03/18 07:47:09;;;;;;;70.05;60.80;;;564.10;1254.40;;;;;;4991478;28;20535;-69
2023/03/18 07:49:34;;;;;;;55.47;49.33;;;589.00;1203.20;;;;;;4991537;28;20030;-63
2023/03/18 07:52:00;;;;;;;71.60;60.42;;;589.00;1228.80;;;;;;4991637;28;20080;-70
2023/03/18 07:54:27;;;;;;;63.20;56.13;;;589.20;1203.20;;;;;;4991763;28;20523;-67
2023/03/18 07:56:52;;;;;;;61.58;52.97;;;614.70;1203.20;;;;;;4992122;28;20018;-67
2023/03/18 07:59:19;;;;;;;60.58;52.72;;;589.70;1203.20;;;;;;4991491;28;20027;-67
2023/03/18 08:01:45;;;;;;;59.95;48.50;;;614.80;1177.60;;;;;;4991862;28;20058;-64
2023/03/18 08:04:11;;;;;;;59.75;50.00;;;640.00;1152.00;;;;;;4990474;28;20385;-68
2023/03/18 08:06:37;;;;;;;64.60;55.38;;;588.90;1203.20;;;;;;4991290;28;20018;-65
2023/03/18 08:09:04;;;;;;;44.83;39.92;;;564.10;1228.80;;;;;;4990679;28;20125;-68
2023/03/18 08:11:32;;;;;;;42.30;37.53;;;589.10;1228.80;;;;;;4991227;28;20138;-71
2023/03/18 08:13:58;;;;;;;50.17;44.78;;;614.50;1152.00;;;;;;4990601;28;20065;-65
2023/03/18 08:16:24;;;;;;;43.70;37.38;;;589.60;1177.60;;;;;;4990902;28;20019;-69
2023/03/18 08:18:50;;;;;;;48.47;42.53;;;615.20;1152.00;;;;;;4978433;28;20023;-69
2023/03/18 08:21:16;;;;;;;48.08;43.05;;;589.70;1177.60;;;;;;4991078;28;20092;-68
2023/03/18 08:23:42;;;;;;;43.17;38.85;;;640.00;1152.00;;;;;;4990466;28;20540;-60
2023/03/18 08:26:08;;;;;;;47.75;43.03;;;615.30;1126.40;;;;;;4990487;28;20046;-63
2023/03/18 08:28:33;;;;;;;50.28;45.15;;;640.40;1100.80;;;;;;4990846;28;20026;-60
2023/03/18 08:31:00;;;;;;;40.45;36.72;;;666.50;1075.20;;;;;;4990582;28;20112;-60
2023/03/18 08:33:26;;;;;;;48.50;43.83;;;666.10;1075.20;;;;;;4990858;28;20031;-65
2023/03/18 08:35:53;;;;;;;46.50;41.83;;;666.50;1075.20;;;;;;4990644;28;20030;-67
2023/03/18 08:38:19;;;;;;;45.13;40.45;;;640.40;1100.80;;;;;;4990261;28;20485;-67
2023/03/18 08:40:46;;;;;;;46.63;41.65;;;640.00;1100.80;;;;;;4990117;28;20025;-68
2023/03/18 08:43:12;;;;;;;57.95;51.80;;;614.60;1152.00;;;;;;4990334;28;20033;-64
2023/03/18 08:45:38;;;;;;;41.78;37.58;;;614.70;1152.00;;;;;;4990602;28;20061;-59
2023/03/18 08:48:04;;;;;;;29.48;26.13;;;640.40;1075.20;;;;;;4990196;28;20026;-68
2023/03/18 08:50:30;;;;;;;33.05;29.42;;;615.00;1126.40;;;;;;4990003;28;20496;-67
2023/03/18 08:52:57;;;;;;;25.25;22.77;;;589.50;1177.60;;;;;;4990727;28;20037;-61
2023/03/18 08:55:33;;;;;;;33.03;27.85;;;589.20;1152.00;;;;;;4990315;28;20022;-68
2023/03/18 08:57:59;;;;;;;28.98;25.95;;;614.40;1152.00;;;;;;4990252;28;20447;-67
2023/03/18 09:00:25;;;;;;;29.55;26.35;;;615.00;1152.00;;;;;;4990257;28;20022;-67
2023/03/18 09:02:52;;;;;;;50.78;45.78;;;640.00;1126.40;;;;;;4988225;28;20157;-69
2023/03/18 09:05:19;;;;;;;37.40;33.38;;;665.70;1100.80;;;;;;4988484;28;20524;-67
2023/03/18 09:07:45;;;;;;;30.02;26.95;;;640.70;1075.20;;;;;;4988742;28;20053;-62
2023/03/18 09:10:13;;;;;;;34.95;31.33;;;589.60;1177.60;;;;;;4988329;28;20076;-59
2023/03/18 09:12:41;;;;;;;28.05;25.05;;;563.40;1254.40;;;;;;4988407;28;20019;-65
2023/03/18 09:15:08;;;;;;;29.02;24.83;;;537.70;1280.00;;;;;;4987235;28;20058;-62
2023/03/18 09:17:36;;;;;;;25.85;23.05;;;486.90;1331.20;;;;;;4988114;28;20492;-61
2023/03/18 09:20:02;;;;;;;23.30;17.40;;;487.10;1305.60;;;;;;4988711;28;20493;-65
2023/03/18 09:22:28;;;;;;;23.05;18.33;;;460.80;1382.40;;;;;;4988187;28;20053;-66
2023/03/18 09:24:54;;;;;;;24.60;18.42;;;460.90;1408.00;;;;;;4988332;28;20377;-63
2023/03/18 09:27:19;;;;;;;15.13;13.52;;;436.10;1382.40;;;;;;4987949;28;20084;-65
2023/03/18 09:29:45;;;;;;;26.30;19.85;;;435.80;1408.00;;;;;;4987290;28;20045;-63
2023/03/18 09:32:12;;;;;;;28.95;24.00;;;435.30;1459.20;;;;;;4976768;28;20096;-64
2023/03/18 09:34:37;;;;;;;30.83;25.30;;;435.90;1459.20;;;;;;4985410;28;20039;-64
2023/03/18 09:37:03;;;;;;;22.08;18.25;;;435.90;1459.20;;;;;;4988377;28;20469;-66
2023/03/18 09:39:29;;;;;;;15.88;13.25;;;435.20;1510.40;;;;;;4988041;28;20030;-65
2023/03/18 09:42:31;;;;;;;24.52;17.08;;;435.40;1510.40;;;;;;4987882;28;20073;-65
2023/03/18 09:45:01;;;;;;;20.08;16.42;;;435.20;1510.40;;;;;;4987770;28;20054;-66
2023/03/18 09:47:30;;;;;;;18.17;15.43;;;410.00;1536.00;;;;;;4987411;28;20026;-64
2023/03/18 09:50:17;;;;;;;22.17;15.23;;;410.20;1561.60;;;;;;4987636;28;20400;-62
2023/03/18 09:53:15;;;;;;;20.70;16.25;;;409.80;1561.60;;;;;;4987883;28;20026;-65
2023/03/18 09:55:54;;;;;;;35.38;29.25;;;409.70;1587.20;;;;;;4987167;28;20088;-63
2023/03/18 09:58:43;;;;;;;27.45;20.58;;;410.00;1587.20;;;;;;4987873;28;20369;-63
2023/03/18 10:01:10;;;;;;;23.45;15.35;;;410.50;1561.60;;;;;;4977369;28;20045;-61
2023/03/18 10:03:45;;;;;;;22.75;17.25;;;409.90;1587.20;;;;;;4987916;28;20027;-62
2023/03/18 10:06:22;;;;;;;25.13;19.73;;;410.00;1587.20;;;;;;4987943;28;20031;-68
2023/03/18 10:09:05;;;;;;;21.58;17.58;;;410.40;1587.20;;;;;;4987247;28;20039;-61
2023/03/18 10:11:35;;;;;;;15.13;12.88;;;409.90;1587.20;;;;;;4976353;28;20448;-68
2023/03/18 10:14:20;;;;;;;17.85;12.27;;;410.00;1587.20;;;;;;4987515;28;20054;-61
2023/03/18 10:16:54;;;;;;;32.53;23.48;;;410.20;1587.20;;;;;;4987989;28;20033;-63
2023/03/18 10:19:20;;;;;;;19.95;16.42;;;410.00;1587.20;;;;;;4987727;28;20029;-62
2023/03/18 10:21:59;;;;;;;27.70;17.92;;;409.90;1587.20;;;;;;4987700;28;20058;-63
2023/03/18 10:25:03;;;;;;;17.75;12.63;;;409.80;1587.20;;;;;;4988057;28;20030;-64
2023/03/18 10:27:46;;;;;;;22.30;16.02;;;409.80;1561.60;;;;;;4910857;29;20043;-65
2023/03/18 10:30:49;;;;;;;22.98;17.90;;;384.40;1612.80;;;;;;4912293;29;20052;-65
2023/03/18 10:33:15;;;;;;;20.73;15.98;;;410.00;1612.80;;;;;;4911809;29;20662;-63
2023/03/18 10:36:36;;;;;;;28.05;19.90;;;410.50;1587.20;;;;;;4896199;29;20095;-62
2023/03/18 10:39:03;;;;;;;33.08;26.92;;;410.30;1587.20;;;;;;4856135;29;20105;-65
2023/03/18 10:41:35;;;;;;;34.47;22.58;;;410.10;1536.00;;;;;;4855439;29;20086;-60
2023/03/18 10:44:06;;;;;;;18.47;13.33;;;410.50;1536.00;;;;;;4855449;29;20045;-65
2023/03/18 10:46:37;;;;;;;15.93;10.77;;;410.20;1536.00;;;;;;4855110;29;20625;-64
2023/03/18 10:49:05;;;;;;;35.83;19.63;;;409.70;1561.60;;;;;;4858030;29;20041;-63
2023/03/18 10:51:33;;;;;;;18.60;14.77;;;409.80;1587.20;;;;;;4857600;29;20398;-59
2023/03/18 10:54:18;;;;;;;15.07;10.75;;;409.80;1561.60;;;;;;4857337;29;20128;-60
2023/03/18 10:56:44;;;;;;;24.95;18.00;;;410.20;1561.60;;;;;;4857529;29;20037;-59
2023/03/18 10:59:16;;;;;;;16.30;11.15;;;410.00;1536.00;;;;;;4857090;29;20520;-63
2023/03/18 11:01:50;;;;;;;23.60;16.17;;;410.00;1536.00;;;;;;4857118;29;20034;-59
2023/03/18 11:04:20;;;;;;;13.15;8.07;;;409.60;1510.40;;;;;;4884006;29;20179;-64
2023/03/18 11:06:47;;;;;;;24.58;19.42;;;409.90;1510.40;;;;;;4913719;29;20028;-63
2023/03/18 11:09:19;;;;;;;20.10;14.75;;;409.80;1510.40;;;;;;4913252;29;20052;-59
2023/03/18 11:11:54;;;;;;;17.45;11.25;;;410.20;1510.40;;;;;;4912731;29;20043;-66
2023/03/18 11:14:25;;;;;;;14.10;9.88;;;410.20;1510.40;;;;;;4942683;28;20055;-59
2023/03/18 11:16:56;;;;;;;9.15;6.22;;;410.20;1510.40;;;;;;4992318;28;20034;-59
2023/03/18 11:19:28;;;;;;;10.95;8.25;;;410.20;1510.40;;;;;;4991899;28;20417;-65
2023/03/18 11:22:22;;;;;;;13.43;10.27;;;409.80;1510.40;;;;;;4974702;28;20027;-63
2023/03/18 11:25:04;;;;;;;19.20;12.95;;;410.00;1510.40;;;;;;4980226;28;20109;-62
2023/03/18 11:27:51;;;;;;;12.95;9.73;;;410.20;1536.00;;;;;;4992150;28;20041;-64
2023/03/18 11:30:23;;;;;;;15.15;11.90;;;410.20;1484.80;;;;;;4991750;28;20527;-60
2023/03/18 11:32:55;;;;;;;14.02;10.48;;;410.30;1510.40;;;;;;4991578;28;20488;-62
2023/03/18 11:35:32;;;;;;;16.17;9.45;;;409.70;1510.40;;;;;;4991636;28;20042;-64
2023/03/18 11:38:03;;;;;;;11.35;7.32;;;409.70;1510.40;;;;;;4990657;28;20109;-63
2023/03/18 11:40:30;;;;;;;14.05;10.02;;;409.80;1510.40;;;;;;4991814;28;20026;-59
2023/03/18 11:42:59;;;;;;;17.60;11.60;;;410.20;1510.40;;;;;;4973648;28;20034;-65
2023/03/18 11:45:43;;;;;;;11.48;9.48;;;410.20;1484.80;;;;;;4991805;28;20164;-64
2023/03/18 11:48:19;;;;;;;10.55;7.03;;;410.20;1484.80;;;;;;4991888;28;20030;-64
2023/03/18 11:51:05;;;;;;;17.92;11.90;;;410.30;1484.80;;;;;;4991750;28;20034;-64
2023/03/18 11:53:59;;;;;;;31.40;19.33;;;410.30;1484.80;;;;;;4991389;28;20478;-62
2023/03/18 11:56:38;;;;;;;28.55;19.13;;;410.30;1484.80;;;;;;4991067;28;20027;-63
2023/03/18 11:59:26;;;;;;;43.00;28.02;;;410.50;1459.20;;;;;;4991491;28;20034;-66
2023/03/18 12:02:10;;;;;;;14.20;10.02;;;435.20;1459.20;;;;;;4979973;28;20026;-64
2023/03/18 12:05:04;;;;;;;45.08;27.25;;;410.30;1433.60;;;;;;4991133;28;20050;-65
2023/03/18 12:07:59;;;;;;;21.05;13.15;;;410.40;1459.20;;;;;;4991074;28;20037;-59
2023/03/18 12:10:36;;;;;;;13.20;8.32;;;410.30;1433.60;;;;;;4991189;28;20066;-59
2023/03/18 12:13:10;;;;;;;18.40;14.23;;;409.90;1433.60;;;;;;4990502;28;20074;-64
2023/03/18 12:15:46;;;;;;;31.75;22.77;;;410.00;1459.20;;;;;;4991166;28;20046;-62